Time;durP1;ratioP1;P1;durP2;ratioP2;P2;SDS_P1;SDS_P2;PMS_P1;PMS_P2;Temp;Humidity;BMP_temperature;BMP_pressure;BME280_temperature;BME280_humidity;BME280_pressure;Samples;Min_cycle;Max_cycle;Signal;HPM_P1;HPM_P2
2021/12/14 06:24:05;;;;;;;8.43;7.63;;;9.60;99.90;;;;;;4953738;29;20057;-78
2021/12/14 06:26:36;;;;;;;9.23;8.15;;;9.60;99.90;;;;;;4945464;28;20039;-83
2021/12/14 06:29:15;;;;;;;9.23;8.18;;;9.60;99.90;;;;;;4960048;29;20031;-78
2021/12/14 06:31:50;;;;;;;11.68;9.02;;;9.60;99.90;;;;;;4955165;28;20023;-86
2021/12/14 06:34:27;;;;;;;11.23;8.40;;;9.60;99.90;;;;;;4952586;28;20031;-91
2021/12/14 06:40:09;;;;;;;11.38;10.18;;;9.60;99.90;;;;;;4958074;29;20035;-88
2021/12/14 06:42:49;;;;;;;10.90;9.80;;;9.60;99.90;;;;;;4955553;29;20043;-85
2021/12/14 06:45:19;;;;;;;10.75;9.65;;;9.60;99.90;;;;;;4952060;29;20023;-87
2021/12/14 06:47:48;;;;;;;11.60;9.35;;;9.60;99.90;;;;;;4955265;29;20023;-88
2021/12/14 06:50:20;;;;;;;10.65;9.40;;;9.60;99.90;;;;;;4955973;28;20086;-91
2021/12/14 06:53:00;;;;;;;9.93;8.93;;;9.60;99.90;;;;;;4953763;29;20050;-86
2021/12/14 06:55:26;;;;;;;11.02;9.90;;;9.60;99.90;;;;;;4945342;29;20053;-87
2021/12/14 06:57:53;;;;;;;10.50;9.50;;;9.60;99.90;;;;;;4954866;29;20023;-85
2021/12/14 07:00:20;;;;;;;11.30;10.07;;;9.60;99.90;;;;;;4952080;28;20101;-82
2021/12/14 07:02:50;;;;;;;12.90;11.10;;;9.60;99.90;;;;;;4951829;28;20034;-87
2021/12/14 07:05:19;;;;;;;11.00;9.70;;;9.60;99.90;;;;;;4934202;29;20051;-85
2021/12/14 07:07:45;;;;;;;12.15;10.85;;;9.60;99.90;;;;;;4948709;29;20084;-82
2021/12/14 07:10:11;;;;;;;11.77;10.05;;;9.60;99.90;;;;;;4954787;28;20069;-80
2021/12/14 07:12:38;;;;;;;10.25;9.25;;;9.60;99.90;;;;;;4951929;28;20019;-83
2021/12/14 07:15:23;;;;;;;11.57;10.30;;;9.60;99.90;;;;;;4949303;29;20453;-86
2021/12/14 07:18:00;;;;;;;13.50;10.52;;;9.60;99.90;;;;;;4951609;29;20027;-83
2021/12/14 07:20:33;;;;;;;12.45;11.05;;;9.60;99.90;;;;;;4944227;28;20379;-84
2021/12/14 07:23:33;;;;;;;12.45;11.15;;;9.60;99.90;;;;;;4970251;28;20058;-87
2021/12/14 07:26:10;;;;;;;12.13;10.00;;;9.60;99.90;;;;;;4968850;28;20027;-93
2021/12/14 07:28:41;;;;;;;12.20;11.00;;;9.60;99.90;;;;;;4971592;28;20435;-84
2021/12/14 07:31:17;;;;;;;13.40;12.02;;;9.60;99.90;;;;;;4970591;28;20027;-89
2021/12/14 07:34:05;;;;;;;12.75;11.45;;;9.50;99.90;;;;;;4971624;28;20542;-88
2021/12/14 07:36:34;;;;;;;13.38;11.98;;;9.60;99.90;;;;;;4973236;28;20052;-84
2021/12/14 07:39:03;;;;;;;12.63;11.40;;;9.60;99.90;;;;;;4972238;28;20026;-84
2021/12/14 07:41:32;;;;;;;13.50;12.10;;;9.50;99.90;;;;;;4971462;28;20114;-84
2021/12/14 07:44:04;;;;;;;14.18;11.82;;;9.50;99.90;;;;;;4973518;28;20496;-84
2021/12/14 07:46:32;;;;;;;13.10;11.70;;;9.50;99.90;;;;;;4972013;28;20035;-84
2021/12/14 07:49:07;;;;;;;13.23;11.82;;;9.60;99.90;;;;;;4971515;28;20443;-84
2021/12/14 07:51:35;;;;;;;12.48;11.18;;;9.60;99.90;;;;;;4971751;28;20031;-84
2021/12/14 07:54:07;;;;;;;14.75;12.77;;;9.60;99.90;;;;;;4972159;28;20082;-84
2021/12/14 07:56:46;;;;;;;13.15;11.77;;;9.60;99.90;;;;;;4972484;28;20058;-84
2021/12/14 07:59:23;;;;;;;13.15;11.73;;;9.60;99.90;;;;;;4973194;28;20365;-83
2021/12/14 08:02:06;;;;;;;14.00;12.45;;;9.60;99.90;;;;;;4971583;28;20098;-84
2021/12/14 08:04:37;;;;;;;14.57;13.00;;;9.60;99.90;;;;;;4971614;28;20094;-84
2021/12/14 08:07:04;;;;;;;13.57;12.25;;;9.60;99.90;;;;;;4971866;28;20117;-84
2021/12/14 08:09:52;;;;;;;12.93;11.63;;;9.60;99.90;;;;;;4971263;28;20019;-83
2021/12/14 08:13:02;;;;;;;15.93;14.07;;;9.60;99.90;;;;;;4971784;28;20456;-83
2021/12/14 08:15:50;;;;;;;15.80;14.18;;;9.60;99.90;;;;;;4958711;28;20643;-83
2021/12/14 08:18:25;;;;;;;15.10;13.57;;;9.60;99.90;;;;;;4972871;28;20053;-83
2021/12/14 08:21:12;;;;;;;15.05;13.45;;;9.60;99.90;;;;;;4972096;28;20034;-83
2021/12/14 08:23:48;;;;;;;15.32;13.73;;;9.70;99.90;;;;;;4970270;28;20081;-84
2021/12/14 08:26:19;;;;;;;16.17;14.18;;;9.60;99.90;;;;;;4971073;28;20114;-83
2021/12/14 08:28:51;;;;;;;15.85;14.25;;;9.70;99.90;;;;;;4973029;28;20026;-83
2021/12/14 08:31:18;;;;;;;16.98;14.80;;;9.70;99.90;;;;;;4970695;28;20077;-83
2021/12/14 08:33:52;;;;;;;16.27;14.57;;;9.70;99.90;;;;;;4971218;28;20027;-84
2021/12/14 08:36:17;;;;;;;16.25;14.55;;;9.70;99.90;;;;;;4972632;28;20045;-83
2021/12/14 08:38:43;;;;;;;15.95;14.35;;;9.70;99.90;;;;;;4970847;28;20027;-83
2021/12/14 08:41:21;;;;;;;16.92;15.13;;;9.70;99.90;;;;;;4971378;28;20356;-84
2021/12/14 08:43:50;;;;;;;17.17;15.38;;;9.70;99.90;;;;;;4970994;28;20037;-84
2021/12/14 08:46:30;;;;;;;21.25;16.00;;;9.70;99.90;;;;;;4972254;28;20038;-84
2021/12/14 08:49:02;;;;;;;18.15;16.23;;;9.70;99.90;;;;;;4955242;28;20039;-84
2021/12/14 08:51:37;;;;;;;16.20;14.45;;;9.70;99.90;;;;;;4971748;28;20031;-84
2021/12/14 08:54:09;;;;;;;15.55;13.40;;;9.70;99.90;;;;;;4966756;28;20026;-83
2021/12/14 08:56:38;;;;;;;16.15;14.55;;;9.80;99.90;;;;;;4970741;28;20038;-84
2021/12/14 08:59:06;;;;;;;17.58;15.77;;;9.90;99.90;;;;;;4970535;28;20117;-84
2021/12/14 09:01:34;;;;;;;19.50;16.48;;;9.90;99.90;;;;;;4971787;28;20034;-85
2021/12/14 09:04:22;;;;;;;17.92;15.63;;;9.90;99.90;;;;;;4971197;28;20048;-84
2021/12/14 09:06:50;;;;;;;17.65;15.85;;;9.90;99.90;;;;;;4970227;28;20023;-84
2021/12/14 09:09:19;;;;;;;17.40;15.60;;;9.90;99.90;;;;;;4970713;28;20038;-84
2021/12/14 09:11:51;;;;;;;18.55;16.65;;;10.00;99.90;;;;;;4970869;28;20423;-84
2021/12/14 09:14:17;;;;;;;18.27;16.38;;;10.00;99.90;;;;;;4969934;28;20038;-84
2021/12/14 09:16:48;;;;;;;19.70;17.48;;;10.00;99.90;;;;;;4970641;28;20126;-84
2021/12/14 09:19:21;;;;;;;19.23;17.00;;;10.00;99.90;;;;;;4970370;28;20081;-84
2021/12/14 09:21:52;;;;;;;20.23;17.65;;;10.00;99.90;;;;;;4978513;28;20104;-84
2021/12/14 09:24:21;;;;;;;17.52;15.73;;;10.00;99.90;;;;;;4958710;28;20037;-84
2021/12/14 09:26:52;;;;;;;17.73;15.82;;;10.10;99.90;;;;;;4973212;28;20026;-84
2021/12/14 09:29:21;;;;;;;24.38;18.13;;;10.10;99.90;;;;;;4973614;28;20081;-82
2021/12/14 09:31:51;;;;;;;19.95;17.85;;;10.10;99.90;;;;;;4973735;28;20025;-84
2021/12/14 09:34:20;;;;;;;19.38;17.20;;;10.10;99.90;;;;;;4972961;28;20476;-83
2021/12/14 09:36:49;;;;;;;18.88;16.85;;;10.10;99.90;;;;;;4994308;28;20034;-84
2021/12/14 09:39:19;;;;;;;18.85;16.95;;;10.10;99.90;;;;;;4977837;28;20810;-84
2021/12/14 09:41:53;;;;;;;17.77;15.98;;;10.10;99.90;;;;;;4977370;28;20113;-84
2021/12/14 09:44:21;;;;;;;21.05;18.75;;;10.20;99.90;;;;;;4995159;28;20022;-84
2021/12/14 09:46:49;;;;;;;20.80;18.60;;;10.20;99.90;;;;;;4977767;28;20046;-84
2021/12/14 09:49:15;;;;;;;19.98;17.77;;;10.20;99.90;;;;;;4977340;28;20021;-84
2021/12/14 09:52:04;;;;;;;19.38;17.38;;;10.20;99.90;;;;;;4977779;28;20038;-84
2021/12/14 09:54:31;;;;;;;22.13;18.70;;;10.20;99.90;;;;;;4976756;28;20027;-84
2021/12/14 09:57:06;;;;;;;22.38;20.08;;;10.20;99.90;;;;;;4977469;28;20090;-85
2021/12/14 09:59:33;;;;;;;23.20;19.92;;;10.20;99.90;;;;;;4977224;28;20146;-84
2021/12/14 10:02:32;;;;;;;22.25;19.73;;;10.20;99.90;;;;;;4994316;28;20032;-83
2021/12/14 10:05:05;;;;;;;22.02;19.65;;;10.20;99.90;;;;;;4972552;28;20030;-84
2021/12/14 10:07:31;;;;;;;24.35;19.83;;;10.20;99.90;;;;;;4994326;28;20030;-84
2021/12/14 10:10:00;;;;;;;23.67;21.17;;;10.20;99.90;;;;;;4976904;28;20084;-84
2021/12/14 10:14:57;;;;;;;23.20;20.77;;;10.20;99.90;;;;;;4995212;28;20038;-84
2021/12/14 10:17:26;;;;;;;23.50;20.88;;;10.20;99.90;;;;;;4976640;28;20037;-84
2021/12/14 10:19:52;;;;;;;24.08;20.73;;;10.20;99.90;;;;;;4994741;28;20433;-84
2021/12/14 10:22:23;;;;;;;22.27;19.63;;;10.20;99.90;;;;;;4993453;28;20046;-84
2021/12/14 10:24:52;;;;;;;24.23;20.40;;;10.20;99.90;;;;;;4977630;28;20363;-84
2021/12/14 10:27:21;;;;;;;24.27;20.60;;;10.20;99.90;;;;;;4976889;28;20023;-83
2021/12/14 10:29:47;;;;;;;23.60;20.90;;;10.20;99.90;;;;;;4993928;28;20384;-84
2021/12/14 10:32:22;;;;;;;21.83;18.98;;;10.30;99.90;;;;;;4976380;28;20096;-84
2021/12/14 10:34:52;;;;;;;21.88;19.48;;;10.30;99.90;;;;;;4976808;28;20022;-84
2021/12/14 10:37:24;;;;;;;24.45;20.90;;;10.40;99.90;;;;;;4993451;28;20030;-84
2021/12/14 10:45:08;;;;;;;26.98;23.15;;;10.50;99.90;;;;;;4993664;28;20037;-84
2021/12/14 10:47:34;;;;;;;23.77;20.98;;;10.50;99.90;;;;;;4975270;28;20023;-84
2021/12/14 10:50:07;;;;;;;27.70;23.35;;;10.50;99.90;;;;;;4993832;28;20102;-84
2021/12/14 10:52:40;;;;;;;25.15;22.38;;;10.60;99.90;;;;;;4992871;28;20164;-84
2021/12/14 10:55:08;;;;;;;;;;;10.60;99.90;;;;;;4977037;28;20386;-85
2021/12/14 10:57:35;;;;;;;25.13;21.27;;;10.60;99.90;;;;;;4975109;28;19917;-85
2021/12/14 11:00:17;;;;;;;30.73;25.92;;;10.60;99.90;;;;;;4976377;28;20147;-83
2021/12/14 11:02:43;;;;;;;28.95;24.63;;;10.60;99.90;;;;;;4976295;28;20030;-84
2021/12/14 11:05:18;;;;;;;34.50;25.92;;;10.60;99.90;;;;;;4975831;28;20029;-84
2021/12/14 11:07:47;;;;;;;32.13;26.30;;;10.60;99.90;;;;;;4976190;28;20022;-83
2021/12/14 11:10:27;;;;;;;30.52;25.65;;;10.50;99.90;;;;;;4993548;28;20128;-84
2021/12/14 11:13:06;;;;;;;30.33;26.20;;;10.60;99.90;;;;;;4993115;28;20026;-83
2021/12/14 11:15:36;;;;;;;28.83;25.67;;;10.60;99.90;;;;;;4975804;28;20045;-84
2021/12/14 11:18:10;;;;;;;35.60;28.23;;;10.50;99.90;;;;;;4975975;28;20026;-83
2021/12/14 11:20:48;;;;;;;30.98;25.70;;;10.50;99.90;;;;;;4975346;28;20034;-84
2021/12/14 11:23:20;;;;;;;32.83;27.85;;;10.60;99.90;;;;;;4993080;28;20123;-83
2021/12/14 11:25:49;;;;;;;;;;;10.60;99.90;;;;;;4976021;28;20034;-83
2021/12/14 11:28:42;;;;;;;28.05;22.58;;;10.60;99.90;;;;;;4975836;28;20000;-83
2021/12/14 11:31:23;;;;;;;29.15;24.65;;;10.70;99.90;;;;;;4975679;28;20029;-83
2021/12/14 11:34:09;;;;;;;33.78;28.63;;;10.70;99.90;;;;;;4975299;28;20026;-84
2021/12/14 11:36:53;;;;;;;33.83;27.83;;;10.60;99.90;;;;;;4975739;28;20027;-83
2021/12/14 11:39:28;;;;;;;35.33;28.67;;;10.60;99.90;;;;;;4975506;28;20025;-84
2021/12/14 11:42:18;;;;;;;36.38;29.88;;;10.60;99.90;;;;;;4975005;28;20117;-83
2021/12/14 11:44:52;;;;;;;36.67;29.17;;;10.60;99.90;;;;;;4993403;28;20061;-82
2021/12/14 11:50:11;;;;;;;32.40;26.90;;;10.60;99.90;;;;;;4992974;28;20038;-83
2021/12/14 11:53:15;;;;;;;34.75;28.35;;;10.60;99.90;;;;;;4992424;28;20022;-83
2021/12/14 11:55:52;;;;;;;36.17;29.27;;;10.70;99.90;;;;;;4970554;28;20050;-83
2021/12/14 11:58:45;;;;;;;39.83;29.90;;;10.70;99.90;;;;;;4975153;28;20034;-81
2021/12/14 12:01:17;;;;;;;33.97;28.88;;;10.70;99.90;;;;;;4974716;28;20038;-82
2021/12/14 12:03:59;;;;;;;34.65;28.80;;;10.70;99.90;;;;;;4975111;28;20356;-81
2021/12/14 12:09:31;;;;;;;35.45;28.02;;;10.70;99.90;;;;;;4991899;28;20038;-82
2021/12/14 12:12:03;;;;;;;39.35;30.58;;;10.70;99.90;;;;;;4992682;28;20364;-83
2021/12/14 12:14:31;;;;;;;39.67;31.35;;;10.70;99.90;;;;;;4974802;28;20085;-81
2021/12/14 12:17:23;;;;;;;37.08;29.10;;;10.70;99.90;;;;;;4974102;28;20049;-81
2021/12/14 12:20:05;;;;;;;33.47;27.58;;;10.70;99.90;;;;;;4975092;28;20519;-81
2021/12/14 12:22:52;;;;;;;33.33;27.67;;;10.70;99.90;;;;;;4991425;28;20078;-80
2021/12/14 12:25:26;;;;;;;34.58;29.75;;;10.70;99.90;;;;;;4974972;28;20034;-80
2021/12/14 12:27:58;;;;;;;41.35;32.55;;;10.70;99.90;;;;;;4975196;28;20387;-84
2021/12/14 12:30:52;;;;;;;36.72;31.25;;;10.60;99.90;;;;;;4974027;28;20554;-84
2021/12/14 12:33:34;;;;;;;38.70;30.73;;;10.60;99.90;;;;;;4966491;28;20034;-83
2021/12/14 12:36:18;;;;;;;37.95;30.63;;;10.60;99.90;;;;;;4973966;28;20033;-84
2021/12/14 12:38:55;;;;;;;39.97;31.10;;;10.60;99.90;;;;;;4974670;28;20022;-84
2021/12/14 12:41:45;;;;;;;41.13;32.03;;;10.60;99.90;;;;;;4974461;28;20026;-84
2021/12/14 12:44:10;;;;;;;34.45;26.65;;;10.60;99.90;;;;;;4973841;28;20442;-83
2021/12/14 12:46:49;;;;;;;34.30;28.08;;;10.60;99.90;;;;;;4974138;28;20482;-83
2021/12/14 12:49:24;;;;;;;36.13;29.63;;;10.60;99.90;;;;;;4991670;28;20033;-82
2021/12/14 12:51:50;;;;;;;38.03;30.75;;;10.60;99.90;;;;;;4973854;28;20036;-82
2021/12/14 12:54:21;;;;;;;39.85;30.15;;;10.60;99.90;;;;;;4974277;28;20030;-82
2021/12/14 12:57:05;;;;;;;39.25;32.05;;;10.60;99.90;;;;;;4991801;28;20038;-82
2021/12/14 12:59:54;;;;;;;35.53;28.10;;;10.60;99.90;;;;;;4991193;28;20031;-82
2021/12/14 13:02:20;;;;;;;37.53;29.15;;;10.60;99.90;;;;;;4991684;28;20027;-83
2021/12/14 13:04:53;;;;;;;41.03;32.33;;;10.60;99.90;;;;;;4973633;28;20069;-83
2021/12/14 13:07:42;;;;;;;41.28;33.25;;;10.60;99.90;;;;;;4974278;28;20080;-82
2021/12/14 13:10:27;;;;;;;40.33;30.08;;;10.50;99.90;;;;;;4973713;28;20023;-83
2021/12/14 13:13:13;;;;;;;36.05;28.58;;;10.50;99.90;;;;;;4973871;28;20085;-83
2021/12/14 13:16:02;;;;;;;33.50;27.85;;;10.50;99.90;;;;;;4984786;28;20066;-84
2021/12/14 13:19:11;;;;;;;35.35;28.95;;;10.60;99.90;;;;;;4991159;28;20034;-84
2021/12/14 13:21:46;;;;;;;34.13;27.55;;;10.60;99.90;;;;;;4991292;28;20047;-83
2021/12/14 13:24:23;;;;;;;35.25;26.88;;;10.60;99.90;;;;;;4974068;28;20395;-83
2021/12/14 13:27:03;;;;;;;37.53;31.10;;;10.60;99.90;;;;;;4973593;28;20105;-83
2021/12/14 13:29:46;;;;;;;34.40;29.55;;;10.60;99.90;;;;;;4991310;28;20027;-83
2021/12/14 13:32:26;;;;;;;35.53;28.98;;;10.60;99.90;;;;;;4973228;28;20023;-84
2021/12/14 13:35:08;;;;;;;38.60;30.58;;;10.60;99.90;;;;;;4991479;28;20046;-84
2021/12/14 13:37:41;;;;;;;37.88;31.35;;;10.50;99.90;;;;;;4991208;28;20475;-85
2021/12/14 13:40:13;;;;;;;35.15;29.05;;;10.50;99.90;;;;;;4973474;28;20538;-85
2021/12/14 13:43:07;;;;;;;32.30;27.42;;;10.60;99.90;;;;;;4990731;28;20105;-85
2021/12/14 13:45:37;;;;;;;39.40;31.23;;;10.50;99.90;;;;;;4973894;28;20026;-84
2021/12/14 13:48:07;;;;;;;38.47;29.77;;;10.60;99.90;;;;;;4990716;28;20030;-84
2021/12/14 13:50:46;;;;;;;39.33;31.35;;;10.60;99.90;;;;;;4973745;28;20030;-84
2021/12/14 13:53:12;;;;;;;42.75;33.55;;;10.50;99.90;;;;;;4991804;28;20054;-89
2021/12/14 13:55:42;;;;;;;38.72;30.52;;;10.50;99.90;;;;;;4990784;28;20499;-86
2021/12/14 13:58:20;;;;;;;40.20;30.35;;;10.50;99.90;;;;;;4974055;28;20056;-86
2021/12/14 14:01:17;;;;;;;38.42;31.30;;;10.50;99.90;;;;;;4991297;28;20023;-85
2021/12/14 14:03:48;;;;;;;37.90;30.20;;;10.40;99.90;;;;;;4991389;28;20026;-86
2021/12/14 14:06:16;;;;;;;37.63;31.45;;;10.50;99.90;;;;;;4991141;28;20037;-85
2021/12/14 14:09:04;;;;;;;34.50;29.08;;;10.40;99.90;;;;;;4972901;28;20052;-86
2021/12/14 14:11:48;;;;;;;32.83;25.48;;;10.50;99.90;;;;;;4969171;28;20034;-86
2021/12/14 14:14:16;;;;;;;31.15;26.17;;;10.50;99.90;;;;;;4973547;28;20092;-85
2021/12/14 14:16:50;;;;;;;27.00;23.42;;;10.50;99.90;;;;;;4972722;28;20513;-85
2021/12/14 14:19:20;;;;;;;27.13;24.15;;;10.50;99.90;;;;;;4991026;28;20030;-84
2021/12/14 14:21:52;;;;;;;29.13;24.75;;;10.50;99.90;;;;;;4992022;28;20466;-88
2021/12/14 14:24:29;;;;;;;28.45;23.38;;;10.60;99.90;;;;;;4995110;28;20026;-83
2021/12/14 14:26:55;;;;;;;26.60;22.50;;;10.60;99.90;;;;;;4978159;28;20018;-84
2021/12/14 14:29:23;;;;;;;30.20;24.67;;;10.60;99.90;;;;;;4976497;28;20030;-84
2021/12/14 14:32:11;;;;;;;27.35;23.88;;;10.60;99.90;;;;;;4976851;28;20117;-85
2021/12/14 14:34:54;;;;;;;25.50;22.23;;;10.60;99.90;;;;;;4977235;28;20061;-85
2021/12/14 14:37:27;;;;;;;23.08;20.58;;;10.60;99.90;;;;;;4994139;28;20045;-85
2021/12/14 14:39:55;;;;;;;27.35;23.08;;;10.70;99.90;;;;;;4977024;28;20026;-84
2021/12/14 14:42:28;;;;;;;28.27;24.58;;;10.60;99.90;;;;;;4994340;28;20033;-84
2021/12/14 14:45:09;;;;;;;29.95;24.88;;;10.60;99.90;;;;;;4977446;28;20034;-84
2021/12/14 14:47:37;;;;;;;33.90;27.42;;;10.60;99.90;;;;;;4976835;28;20026;-85
2021/12/14 14:50:17;;;;;;;31.17;26.80;;;10.60;99.90;;;;;;4993373;28;20033;-85
2021/12/14 14:52:54;;;;;;;29.02;25.15;;;10.60;99.90;;;;;;4976433;28;20031;-84
2021/12/14 14:55:34;;;;;;;32.92;27.00;;;10.60;99.90;;;;;;4993940;28;20023;-85
2021/12/14 14:58:11;;;;;;;32.70;27.50;;;10.50;99.90;;;;;;4977797;28;20475;-86
2021/12/14 15:00:47;;;;;;;34.55;27.88;;;10.50;99.90;;;;;;4976277;28;20049;-86
2021/12/14 15:03:27;;;;;;;31.08;26.83;;;10.60;99.90;;;;;;4993752;28;20493;-85
2021/12/14 15:06:20;;;;;;;28.67;25.15;;;10.60;99.90;;;;;;4975928;28;20022;-85
2021/12/14 15:08:51;;;;;;;31.13;26.05;;;10.50;99.90;;;;;;4976489;28;20034;-85
2021/12/14 15:11:32;;;;;;;29.80;24.60;;;10.60;99.90;;;;;;4993019;28;20029;-86
2021/12/14 15:14:26;;;;;;;29.90;24.85;;;10.60;99.90;;;;;;4976720;28;20026;-87
2021/12/14 15:17:03;;;;;;;30.15;25.52;;;10.60;99.90;;;;;;4976557;28;20125;-85
2021/12/14 15:19:42;;;;;;;33.03;25.98;;;10.60;99.90;;;;;;4975634;28;20033;-86
2021/12/14 15:22:21;;;;;;;34.53;29.42;;;10.60;99.90;;;;;;4975801;28;20096;-87
2021/12/14 15:24:59;;;;;;;32.33;27.23;;;10.60;99.90;;;;;;4975943;28;20027;-84
2021/12/14 15:27:33;;;;;;;39.53;31.15;;;10.60;99.90;;;;;;4976148;28;20026;-84
2021/12/14 15:30:01;;;;;;;32.15;26.63;;;10.60;99.90;;;;;;4976180;28;20463;-85
2021/12/14 15:32:39;;;;;;;32.53;25.83;;;10.60;99.90;;;;;;4992562;28;20042;-85
2021/12/14 15:35:20;;;;;;;34.25;27.95;;;10.60;99.90;;;;;;4971288;28;20026;-85
2021/12/14 15:37:57;;;;;;;33.50;27.58;;;10.60;99.90;;;;;;4993719;28;20034;-86
2021/12/14 15:40:26;;;;;;;36.45;29.13;;;10.70;99.90;;;;;;4975116;28;20034;-85
2021/12/14 15:42:55;;;;;;;39.50;29.50;;;10.70;99.90;;;;;;4975858;28;20030;-85
2021/12/14 15:45:45;;;;;;;37.00;28.80;;;10.60;99.90;;;;;;4975670;28;20096;-84
2021/12/14 15:48:16;;;;;;;42.10;29.83;;;10.70;99.90;;;;;;4975393;28;20027;-83
2021/12/14 15:51:03;;;;;;;40.00;30.43;;;10.60;99.90;;;;;;4992852;28;20037;-85
2021/12/14 15:53:42;;;;;;;35.58;29.23;;;10.70;99.90;;;;;;4974384;28;20448;-85
2021/12/14 15:56:10;;;;;;;36.47;29.38;;;10.70;99.90;;;;;;4975333;28;20513;-85
2021/12/14 15:58:57;;;;;;;33.88;26.92;;;10.70;99.90;;;;;;4992945;28;20022;-83
2021/12/14 16:02:00;;;;;;;34.72;27.08;;;10.70;99.90;;;;;;4974599;28;20035;-83
2021/12/14 16:04:42;;;;;;;36.42;28.33;;;10.70;99.90;;;;;;4975081;28;20073;-82
2021/12/14 16:07:10;;;;;;;35.70;27.23;;;10.70;99.90;;;;;;4992520;28;20030;-83
2021/12/14 16:09:38;;;;;;;37.42;28.65;;;10.70;99.90;;;;;;4975355;28;20081;-83
2021/12/14 16:15:08;;;;;;;36.20;28.95;;;10.70;99.90;;;;;;4992215;28;20030;-83
2021/12/14 16:17:57;;;;;;;35.92;26.83;;;10.80;99.90;;;;;;4992390;28;20050;-84
2021/12/14 16:20:31;;;;;;;42.13;31.90;;;10.80;99.90;;;;;;4974030;28;20121;-83
2021/12/14 16:23:12;;;;;;;41.95;31.23;;;10.80;99.90;;;;;;4991963;28;20050;-83
2021/12/14 16:25:43;;;;;;;41.00;32.63;;;10.80;99.90;;;;;;4975011;28;20027;-84
2021/12/14 16:28:19;;;;;;;38.20;30.45;;;10.80;99.90;;;;;;4974978;28;20394;-87
2021/12/14 16:30:52;;;;;;;37.72;30.30;;;10.80;99.90;;;;;;4974626;28;20034;-84
2021/12/14 16:33:24;;;;;;;32.67;27.17;;;10.80;99.90;;;;;;4975312;28;20062;-83
2021/12/14 16:36:01;;;;;;;32.63;26.95;;;10.90;99.90;;;;;;4972126;28;20439;-85
2021/12/14 16:38:45;;;;;;;33.08;26.42;;;10.90;99.90;;;;;;4989188;28;20030;-87
2021/12/14 16:41:23;;;;;;;37.00;28.15;;;10.90;99.90;;;;;;4994809;28;20788;-87
2021/12/14 16:44:14;;;;;;;40.35;31.17;;;10.90;99.90;;;;;;4974918;28;20015;-91
2021/12/14 16:47:25;;;;;;;35.58;28.60;;;10.80;99.90;;;;;;4972708;28;20076;-86
2021/12/14 16:49:57;;;;;;;32.13;25.23;;;10.80;99.90;;;;;;4964521;28;20475;-84
2021/12/14 16:52:38;;;;;;;37.67;29.60;;;10.80;99.90;;;;;;4987485;28;20049;-84
2021/12/14 16:55:15;;;;;;;26.13;21.08;;;10.80;99.90;;;;;;4990617;28;20058;-84
2021/12/14 16:57:41;;;;;;;35.47;28.83;;;10.80;99.90;;;;;;4973568;28;20030;-86
2021/12/14 17:00:26;;;;;;;46.30;34.85;;;10.80;99.90;;;;;;4973956;28;20019;-83
2021/12/14 17:02:58;;;;;;;41.17;32.67;;;10.80;99.90;;;;;;4974482;28;20394;-84
2021/12/14 17:05:35;;;;;;;36.38;28.90;;;10.80;99.90;;;;;;4978204;28;20055;-87
2021/12/14 17:08:08;;;;;;;32.35;27.77;;;10.80;99.90;;;;;;4987098;28;20113;-88
2021/12/14 17:10:40;;;;;;;37.72;29.77;;;10.80;99.90;;;;;;4953887;28;20061;-80
2021/12/14 17:13:47;;;;;;;34.25;28.88;;;10.80;99.90;;;;;;4970342;28;20109;-80
2021/12/14 17:16:21;;;;;;;32.50;26.67;;;10.80;99.90;;;;;;4959309;28;20046;-83
2021/12/14 17:18:50;;;;;;;29.30;24.70;;;10.80;99.90;;;;;;4987772;28;20057;-82
2021/12/14 17:21:34;;;;;;;29.70;24.92;;;10.80;99.90;;;;;;4969600;28;20037;-90
2021/12/14 17:24:30;;;;;;;33.47;27.30;;;10.80;99.90;;;;;;4969048;28;20078;-83
2021/12/14 17:27:19;;;;;;;38.35;30.00;;;10.80;99.90;;;;;;4936972;28;20049;-85
2021/12/14 17:29:51;;;;;;;33.20;29.13;;;10.80;99.90;;;;;;4970435;28;20797;-85
2021/12/14 17:32:28;;;;;;;42.83;32.95;;;10.80;99.90;;;;;;4984050;28;20022;-84
2021/12/14 17:35:21;;;;;;;33.08;28.08;;;10.80;99.90;;;;;;4991813;28;20026;-84
2021/12/14 17:37:50;;;;;;;33.40;28.02;;;10.80;99.90;;;;;;4989336;28;20046;-86
2021/12/14 17:40:23;;;;;;;40.75;32.33;;;10.70;99.90;;;;;;4973236;28;20112;-84
2021/12/14 17:42:54;;;;;;;34.75;29.10;;;10.70;99.90;;;;;;4938375;28;20158;-86
2021/12/14 17:45:50;;;;;;;32.85;27.48;;;10.70;99.90;;;;;;4968476;28;20032;-87
2021/12/14 17:48:26;;;;;;;34.13;28.38;;;10.80;99.90;;;;;;4970923;28;20138;-88
2021/12/14 17:51:04;;;;;;;37.28;30.63;;;10.80;99.90;;;;;;4989736;28;20716;-90
2021/12/14 17:53:39;;;;;;;31.90;27.73;;;10.80;99.90;;;;;;4974260;28;20158;-91
2021/12/14 17:56:09;;;;;;;34.25;27.63;;;10.80;99.90;;;;;;4972150;28;20050;-89
2021/12/14 17:58:40;;;;;;;32.53;27.15;;;10.80;99.90;;;;;;4977918;28;20026;-85
2021/12/14 18:01:16;;;;;;;33.80;27.42;;;10.80;99.90;;;;;;4972827;28;20094;-84
2021/12/14 18:03:56;;;;;;;39.92;31.00;;;10.80;99.90;;;;;;4978763;28;20034;-85
2021/12/14 18:06:44;;;;;;;39.60;33.08;;;10.80;99.90;;;;;;4972811;28;20034;-84
2021/12/14 18:09:12;;;;;;;56.30;42.28;;;10.80;99.90;;;;;;4974860;28;20053;-84
2021/12/14 18:12:14;;;;;;;48.28;37.42;;;10.80;99.90;;;;;;4975734;28;20059;-87
2021/12/14 18:15:47;;;;;;;40.95;33.42;;;10.70;99.90;;;;;;4992420;28;20039;-87
2021/12/14 18:25:24;;;;;;;36.20;30.55;;;10.70;99.90;;;;;;4970840;28;20110;-88
2021/12/14 18:27:53;;;;;;;35.05;29.33;;;10.70;99.90;;;;;;4957169;28;20034;-88
2021/12/14 18:30:22;;;;;;;40.03;33.53;;;10.70;99.90;;;;;;4956994;28;20027;-93
2021/12/14 18:32:54;;;;;;;37.40;32.40;;;10.60;99.90;;;;;;4971615;28;20450;-83
2021/12/14 18:35:30;;;;;;;36.03;31.60;;;10.60;99.90;;;;;;4972542;28;20117;-82
2021/12/14 18:38:09;;;;;;;37.72;33.40;;;10.60;99.90;;;;;;4956296;28;20174;-79
2021/12/14 18:40:47;;;;;;;33.55;29.95;;;10.60;99.90;;;;;;4955846;28;20052;-78
2021/12/14 18:43:28;;;;;;;36.72;30.27;;;10.70;99.90;;;;;;4969009;28;20103;-79
2021/12/14 18:45:56;;;;;;;;;;;10.70;99.90;;;;;;4955810;28;20474;-78
2021/12/14 18:51:16;;;;;;;34.28;27.88;;;10.70;99.90;;;;;;4972191;28;20074;-78
2021/12/14 18:53:45;;;;;;;34.95;31.10;;;10.70;99.90;;;;;;4973560;28;20123;-79
2021/12/14 18:56:15;;;;;;;34.35;30.00;;;10.70;99.90;;;;;;4953603;28;20049;-82
2021/12/14 18:58:50;;;;;;;33.58;29.98;;;10.70;99.90;;;;;;4982023;28;20085;-80
2021/12/14 19:01:27;;;;;;;33.20;29.63;;;10.70;99.90;;;;;;4968234;28;20031;-84
2021/12/14 19:04:13;;;;;;;34.05;28.25;;;10.70;99.90;;;;;;4970081;28;20023;-79
2021/12/14 19:06:54;;;;;;;33.15;29.55;;;10.80;99.90;;;;;;4971640;28;20027;-84
2021/12/14 19:09:32;;;;;;;42.50;32.40;;;10.80;99.90;;;;;;4964948;28;20086;-86
2021/12/14 19:12:07;;;;;;;34.50;30.80;;;10.80;99.90;;;;;;4962683;28;20109;-84
2021/12/14 19:14:39;;;;;;;35.78;30.65;;;10.70;99.90;;;;;;4976975;28;20043;-85
2021/12/14 19:17:10;;;;;;;34.50;29.15;;;10.80;99.90;;;;;;4972406;28;20038;-79
2021/12/14 19:19:43;;;;;;;46.15;36.15;;;10.80;99.90;;;;;;4975323;28;20113;-84
2021/12/14 19:22:24;;;;;;;37.58;31.30;;;10.80;99.90;;;;;;4978820;28;20069;-81
2021/12/14 19:24:56;;;;;;;34.42;29.92;;;10.70;99.90;;;;;;4978510;28;20098;-83
2021/12/14 19:27:29;;;;;;;36.50;30.02;;;10.70;99.90;;;;;;4960674;28;20052;-90
2021/12/14 19:30:12;;;;;;;31.80;28.05;;;10.70;99.90;;;;;;4957058;28;20034;-81
2021/12/14 19:32:48;;;;;;;38.13;33.42;;;10.70;99.90;;;;;;4974220;28;20053;-90
2021/12/14 19:35:34;;;;;;;44.88;35.88;;;10.80;99.90;;;;;;4977676;28;20038;-80
2021/12/14 19:38:07;;;;;;;41.03;33.28;;;10.70;99.90;;;;;;4975904;28;20387;-78
2021/12/14 19:41:22;;;;;;;36.95;31.92;;;10.70;99.90;;;;;;4973580;28;20383;-87
2021/12/14 19:43:59;;;;;;;36.50;29.98;;;10.70;99.90;;;;;;4990252;28;20039;-87
2021/12/14 19:46:34;;;;;;;42.47;36.05;;;10.70;99.90;;;;;;4988801;28;20038;-84
2021/12/14 19:49:04;;;;;;;42.47;33.55;;;10.70;99.90;;;;;;4974925;28;20042;-87
2021/12/14 19:51:44;;;;;;;37.70;30.53;;;10.70;99.90;;;;;;4964146;28;20085;-92
2021/12/14 19:54:17;;;;;;;36.97;29.05;;;10.70;99.90;;;;;;4961778;28;20034;-86
2021/12/14 19:56:45;;;;;;;80.35;51.08;;;10.70;99.90;;;;;;4973034;28;20038;-89
2021/12/14 19:59:48;;;;;;;234.27;115.82;;;10.70;99.90;;;;;;4972930;28;20034;-85
2021/12/14 20:02:27;;;;;;;87.72;54.70;;;10.60;99.90;;;;;;4986854;28;20368;-82
2021/12/14 20:05:06;;;;;;;48.45;35.45;;;10.70;99.90;;;;;;4973098;28;20104;-85
2021/12/14 20:07:36;;;;;;;68.05;44.38;;;10.70;99.90;;;;;;4973491;28;20117;-79
2021/12/14 20:10:11;;;;;;;94.82;60.42;;;10.60;99.90;;;;;;4967017;28;20518;-83